sensor_id;sensor_type;location;lat;lon;timestamp;P1;durP1;ratioP1;P2;durP2;ratioP2
71707;SDS011;59556;37.994;-122.332;2022-08-03T00:01:43;17.65;;;5.22;;
71707;SDS011;59556;37.994;-122.332;2022-08-03T00:04:09;9.45;;;4.63;;
71707;SDS011;59556;37.994;-122.332;2022-08-03T00:06:36;9.30;;;3.85;;
71707;SDS011;59556;37.994;-122.332;2022-08-03T00:09:03;8.85;;;4.45;;
71707;SDS011;59556;37.994;-122.332;2022-08-03T00:11:30;8.32;;;4.38;;
71707;SDS011;59556;37.994;-122.332;2022-08-03T00:13:56;11.95;;;4.15;;
71707;SDS011;59556;37.994;-122.332;2022-08-03T00:16:22;8.95;;;3.80;;
71707;SDS011;59556;37.994;-122.332;2022-08-03T00:18:50;6.10;;;3.80;;
71707;SDS011;59556;37.994;-122.332;2022-08-03T00:21:17;7.55;;;3.70;;
71707;SDS011;59556;37.994;-122.332;2022-08-03T00:23:43;6.95;;;3.95;;
71707;SDS011;59556;37.994;-122.332;2022-08-03T00:26:09;8.23;;;3.90;;
71707;SDS011;59556;37.994;-122.332;2022-08-03T00:28:36;8.13;;;4.38;;
71707;SDS011;59556;37.994;-122.332;2022-08-03T00:31:02;7.88;;;4.32;;
71707;SDS011;59556;37.994;-122.332;2022-08-03T00:33:28;7.38;;;3.78;;
71707;SDS011;59556;37.994;-122.332;2022-08-03T00:35:54;6.45;;;3.22;;
71707;SDS011;59556;37.994;-122.332;2022-08-03T00:38:20;6.57;;;3.40;;
71707;SDS011;59556;37.994;-122.332;2022-08-03T00:40:47;5.50;;;3.75;;
71707;SDS011;59556;37.994;-122.332;2022-08-03T00:43:13;8.27;;;3.80;;
71707;SDS011;59556;37.994;-122.332;2022-08-03T00:45:40;4.32;;;3.63;;
71707;SDS011;59556;37.994;-122.332;2022-08-03T00:48:07;6.22;;;4.07;;
71707;SDS011;59556;37.994;-122.332;2022-08-03T00:50:34;7.25;;;3.38;;
71707;SDS011;59556;37.994;-122.332;2022-08-03T00:53:03;8.13;;;3.80;;
71707;SDS011;59556;37.994;-122.332;2022-08-03T00:55:30;9.02;;;4.03;;
71707;SDS011;59556;37.994;-122.332;2022-08-03T00:57:56;5.45;;;3.05;;
71707;SDS011;59556;37.994;-122.332;2022-08-03T01:00:24;9.57;;;3.08;;
71707;SDS011;59556;37.994;-122.332;2022-08-03T01:02:51;6.95;;;3.55;;
71707;SDS011;59556;37.994;-122.332;2022-08-03T01:05:19;8.88;;;3.63;;
71707;SDS011;59556;37.994;-122.332;2022-08-03T01:15:40;17.20;;;5.25;;
71707;SDS011;59556;37.994;-122.332;2022-08-03T01:18:19;16.15;;;5.55;;
71707;SDS011;59556;37.994;-122.332;2022-08-03T01:20:52;10.88;;;4.18;;
71707;SDS011;59556;37.994;-122.332;2022-08-03T01:23:26;17.50;;;5.00;;
71707;SDS011;59556;37.994;-122.332;2022-08-03T01:26:10;9.70;;;4.88;;
71707;SDS011;59556;37.994;-122.332;2022-08-03T01:34:05;13.20;;;4.60;;
71707;SDS011;59556;37.994;-122.332;2022-08-03T01:36:38;13.48;;;4.63;;
71707;SDS011;59556;37.994;-122.332;2022-08-03T01:39:08;16.55;;;5.97;;
71707;SDS011;59556;37.994;-122.332;2022-08-03T01:41:38;14.38;;;5.00;;
71707;SDS011;59556;37.994;-122.332;2022-08-03T01:44:08;12.35;;;4.75;;
71707;SDS011;59556;37.994;-122.332;2022-08-03T01:46:36;9.70;;;5.03;;
71707;SDS011;59556;37.994;-122.332;2022-08-03T01:49:03;15.63;;;5.28;;
71707;SDS011;59556;37.994;-122.332;2022-08-03T01:51:32;11.30;;;4.82;;
71707;SDS011;59556;37.994;-122.332;2022-08-03T01:53:59;8.48;;;4.63;;
71707;SDS011;59556;37.994;-122.332;2022-08-03T01:56:25;10.98;;;4.47;;
71707;SDS011;59556;37.994;-122.332;2022-08-03T01:58:52;13.73;;;4.78;;
71707;SDS011;59556;37.994;-122.332;2022-08-03T02:01:20;12.98;;;5.07;;
71707;SDS011;59556;37.994;-122.332;2022-08-03T02:03:47;14.05;;;4.80;;
71707;SDS011;59556;37.994;-122.332;2022-08-03T02:06:14;13.20;;;5.15;;
71707;SDS011;59556;37.994;-122.332;2022-08-03T02:08:40;10.30;;;4.43;;
71707;SDS011;59556;37.994;-122.332;2022-08-03T02:11:08;8.82;;;4.65;;
71707;SDS011;59556;37.994;-122.332;2022-08-03T02:13:34;8.00;;;4.18;;
71707;SDS011;59556;37.994;-122.332;2022-08-03T02:16:02;12.80;;;4.72;;
71707;SDS011;59556;37.994;-122.332;2022-08-03T02:18:29;8.05;;;4.45;;
71707;SDS011;59556;37.994;-122.332;2022-08-03T02:20:58;10.15;;;4.10;;
71707;SDS011;59556;37.994;-122.332;2022-08-03T02:23:25;12.93;;;5.07;;
71707;SDS011;59556;37.994;-122.332;2022-08-03T02:25:53;11.20;;;4.22;;
71707;SDS011;59556;37.994;-122.332;2022-08-03T02:28:24;9.85;;;4.78;;
71707;SDS011;59556;37.994;-122.332;2022-08-03T02:30:54;8.43;;;4.38;;
71707;SDS011;59556;37.994;-122.332;2022-08-03T02:33:29;7.05;;;3.70;;
71707;SDS011;59556;37.994;-122.332;2022-08-03T02:35:57;9.43;;;3.83;;
71707;SDS011;59556;37.994;-122.332;2022-08-03T02:38:26;9.68;;;4.13;;
71707;SDS011;59556;37.994;-122.332;2022-08-03T02:40:56;10.00;;;3.78;;
71707;SDS011;59556;37.994;-122.332;2022-08-03T02:43:23;9.68;;;3.90;;
71707;SDS011;59556;37.994;-122.332;2022-08-03T02:45:50;11.10;;;3.58;;
71707;SDS011;59556;37.994;-122.332;2022-08-03T02:48:22;12.23;;;5.00;;
71707;SDS011;59556;37.994;-122.332;2022-08-03T02:50:50;8.82;;;3.47;;
71707;SDS011;59556;37.994;-122.332;2022-08-03T02:53:17;4.68;;;3.53;;
71707;SDS011;59556;37.994;-122.332;2022-08-03T02:55:45;9.00;;;4.13;;
71707;SDS011;59556;37.994;-122.332;2022-08-03T02:58:12;8.57;;;3.72;;
71707;SDS011;59556;37.994;-122.332;2022-08-03T03:00:39;8.77;;;3.47;;
71707;SDS011;59556;37.994;-122.332;2022-08-03T03:03:06;5.72;;;3.33;;
71707;SDS011;59556;37.994;-122.332;2022-08-03T03:05:32;4.50;;;3.17;;
71707;SDS011;59556;37.994;-122.332;2022-08-03T03:07:59;7.63;;;3.58;;
71707;SDS011;59556;37.994;-122.332;2022-08-03T03:10:25;5.57;;;3.47;;
71707;SDS011;59556;37.994;-122.332;2022-08-03T03:12:55;11.05;;;4.00;;
71707;SDS011;59556;37.994;-122.332;2022-08-03T03:15:23;7.60;;;3.72;;
71707;SDS011;59556;37.994;-122.332;2022-08-03T03:17:51;10.70;;;4.30;;
71707;SDS011;59556;37.994;-122.332;2022-08-03T03:20:18;8.15;;;3.28;;
71707;SDS011;59556;37.994;-122.332;2022-08-03T03:22:46;7.65;;;3.33;;
71707;SDS011;59556;37.994;-122.332;2022-08-03T03:25:14;9.73;;;3.47;;
71707;SDS011;59556;37.994;-122.332;2022-08-03T03:27:40;8.50;;;4.30;;
71707;SDS011;59556;37.994;-122.332;2022-08-03T03:30:06;6.47;;;3.55;;
71707;SDS011;59556;37.994;-122.332;2022-08-03T03:32:33;5.70;;;3.22;;
71707;SDS011;59556;37.994;-122.332;2022-08-03T03:35:01;4.93;;;3.30;;
71707;SDS011;59556;37.994;-122.332;2022-08-03T03:37:27;9.43;;;3.33;;
71707;SDS011;59556;37.994;-122.332;2022-08-03T03:39:54;7.10;;;3.83;;
71707;SDS011;59556;37.994;-122.332;2022-08-03T03:42:20;7.03;;;3.60;;
71707;SDS011;59556;37.994;-122.332;2022-08-03T03:44:47;8.43;;;3.55;;
71707;SDS011;59556;37.994;-122.332;2022-08-03T03:47:13;4.50;;;3.25;;
71707;SDS011;59556;37.994;-122.332;2022-08-03T03:49:39;5.85;;;3.55;;
71707;SDS011;59556;37.994;-122.332;2022-08-03T03:52:07;6.30;;;3.50;;
71707;SDS011;59556;37.994;-122.332;2022-08-03T03:54:43;4.13;;;3.30;;
71707;SDS011;59556;37.994;-122.332;2022-08-03T03:57:09;6.15;;;3.45;;
71707;SDS011;59556;37.994;-122.332;2022-08-03T03:59:39;5.35;;;3.03;;
71707;SDS011;59556;37.994;-122.332;2022-08-03T04:02:07;5.75;;;3.30;;
71707;SDS011;59556;37.994;-122.332;2022-08-03T04:04:34;8.18;;;2.92;;
71707;SDS011;59556;37.994;-122.332;2022-08-03T04:07:20;6.20;;;3.40;;
71707;SDS011;59556;37.994;-122.332;2022-08-03T04:10:09;6.95;;;3.53;;
71707;SDS011;59556;37.994;-122.332;2022-08-03T04:12:57;5.97;;;3.60;;
71707;SDS011;59556;37.994;-122.332;2022-08-03T04:15:24;9.45;;;3.70;;
71707;SDS011;59556;37.994;-122.332;2022-08-03T04:17:54;4.75;;;3.00;;
71707;SDS011;59556;37.994;-122.332;2022-08-03T04:20:22;9.90;;;3.22;;
71707;SDS011;59556;37.994;-122.332;2022-08-03T04:22:51;7.60;;;3.35;;
71707;SDS011;59556;37.994;-122.332;2022-08-03T04:25:18;5.30;;;3.25;;
71707;SDS011;59556;37.994;-122.332;2022-08-03T04:27:46;5.55;;;3.22;;
71707;SDS011;59556;37.994;-122.332;2022-08-03T04:30:13;6.53;;;3.30;;
71707;SDS011;59556;37.994;-122.332;2022-08-03T04:32:40;7.05;;;2.60;;
71707;SDS011;59556;37.994;-122.332;2022-08-03T04:35:09;4.95;;;3.20;;
71707;SDS011;59556;37.994;-122.332;2022-08-03T04:37:40;7.13;;;3.92;;
71707;SDS011;59556;37.994;-122.332;2022-08-03T04:40:12;12.68;;;3.38;;
71707;SDS011;59556;37.994;-122.332;2022-08-03T04:42:40;4.75;;;3.55;;
71707;SDS011;59556;37.994;-122.332;2022-08-03T04:45:08;7.20;;;3.60;;
71707;SDS011;59556;37.994;-122.332;2022-08-03T04:47:38;9.35;;;4.40;;
71707;SDS011;59556;37.994;-122.332;2022-08-03T04:50:05;4.38;;;3.15;;
71707;SDS011;59556;37.994;-122.332;2022-08-03T04:52:33;8.10;;;3.75;;
71707;SDS011;59556;37.994;-122.332;2022-08-03T04:54:59;6.85;;;3.53;;
71707;SDS011;59556;37.994;-122.332;2022-08-03T04:57:26;6.63;;;3.40;;
71707;SDS011;59556;37.994;-122.332;2022-08-03T04:59:52;5.88;;;3.00;;
71707;SDS011;59556;37.994;-122.332;2022-08-03T05:02:20;6.18;;;3.80;;
71707;SDS011;59556;37.994;-122.332;2022-08-03T05:04:46;5.65;;;3.55;;
71707;SDS011;59556;37.994;-122.332;2022-08-03T05:07:13;5.13;;;3.28;;
71707;SDS011;59556;37.994;-122.332;2022-08-03T05:09:40;5.75;;;3.38;;
71707;SDS011;59556;37.994;-122.332;2022-08-03T05:12:07;6.97;;;3.60;;
71707;SDS011;59556;37.994;-122.332;2022-08-03T05:14:33;6.63;;;3.30;;
71707;SDS011;59556;37.994;-122.332;2022-08-03T05:17:02;5.53;;;3.30;;
71707;SDS011;59556;37.994;-122.332;2022-08-03T05:19:29;5.50;;;3.70;;
71707;SDS011;59556;37.994;-122.332;2022-08-03T05:21:55;5.65;;;3.28;;
71707;SDS011;59556;37.994;-122.332;2022-08-03T05:24:22;7.88;;;3.58;;
71707;SDS011;59556;37.994;-122.332;2022-08-03T05:26:48;6.90;;;3.58;;
71707;SDS011;59556;37.994;-122.332;2022-08-03T05:29:14;9.65;;;3.63;;
71707;SDS011;59556;37.994;-122.332;2022-08-03T05:31:40;6.88;;;3.60;;
71707;SDS011;59556;37.994;-122.332;2022-08-03T05:34:07;5.35;;;3.10;;
71707;SDS011;59556;37.994;-122.332;2022-08-03T05:36:33;5.85;;;3.40;;
71707;SDS011;59556;37.994;-122.332;2022-08-03T05:38:59;4.32;;;3.47;;
71707;SDS011;59556;37.994;-122.332;2022-08-03T05:41:25;6.45;;;3.17;;
71707;SDS011;59556;37.994;-122.332;2022-08-03T05:43:52;5.40;;;3.33;;
71707;SDS011;59556;37.994;-122.332;2022-08-03T05:46:19;6.43;;;2.90;;
71707;SDS011;59556;37.994;-122.332;2022-08-03T05:48:46;6.13;;;2.90;;
71707;SDS011;59556;37.994;-122.332;2022-08-03T05:51:12;6.68;;;3.33;;
71707;SDS011;59556;37.994;-122.332;2022-08-03T05:53:39;7.50;;;3.42;;
71707;SDS011;59556;37.994;-122.332;2022-08-03T05:56:06;13.77;;;4.07;;
71707;SDS011;59556;37.994;-122.332;2022-08-03T05:58:32;18.45;;;4.75;;
71707;SDS011;59556;37.994;-122.332;2022-08-03T06:00:58;10.15;;;3.55;;
71707;SDS011;59556;37.994;-122.332;2022-08-03T06:03:24;9.82;;;3.67;;
71707;SDS011;59556;37.994;-122.332;2022-08-03T06:05:52;10.10;;;4.03;;
71707;SDS011;59556;37.994;-122.332;2022-08-03T06:08:21;9.13;;;3.92;;
71707;SDS011;59556;37.994;-122.332;2022-08-03T06:10:48;9.10;;;3.90;;
71707;SDS011;59556;37.994;-122.332;2022-08-03T06:13:14;8.65;;;4.15;;
71707;SDS011;59556;37.994;-122.332;2022-08-03T06:15:40;6.13;;;3.40;;
71707;SDS011;59556;37.994;-122.332;2022-08-03T06:18:08;9.75;;;3.10;;
71707;SDS011;59556;37.994;-122.332;2022-08-03T06:20:34;6.15;;;3.53;;
71707;SDS011;59556;37.994;-122.332;2022-08-03T06:23:00;7.78;;;3.35;;
71707;SDS011;59556;37.994;-122.332;2022-08-03T06:25:27;6.45;;;3.45;;
71707;SDS011;59556;37.994;-122.332;2022-08-03T06:27:53;8.63;;;3.63;;
71707;SDS011;59556;37.994;-122.332;2022-08-03T06:30:19;8.18;;;2.88;;
71707;SDS011;59556;37.994;-122.332;2022-08-03T06:32:46;7.25;;;3.75;;
71707;SDS011;59556;37.994;-122.332;2022-08-03T06:35:12;3.78;;;3.22;;
71707;SDS011;59556;37.994;-122.332;2022-08-03T06:37:44;4.47;;;3.20;;
71707;SDS011;59556;37.994;-122.332;2022-08-03T06:40:14;4.82;;;3.38;;
71707;SDS011;59556;37.994;-122.332;2022-08-03T06:42:43;7.13;;;3.20;;
71707;SDS011;59556;37.994;-122.332;2022-08-03T06:45:09;5.53;;;3.30;;
71707;SDS011;59556;37.994;-122.332;2022-08-03T06:47:37;6.07;;;3.40;;
71707;SDS011;59556;37.994;-122.332;2022-08-03T06:50:04;4.45;;;2.92;;
71707;SDS011;59556;37.994;-122.332;2022-08-03T06:52:31;4.18;;;2.92;;
71707;SDS011;59556;37.994;-122.332;2022-08-03T06:54:58;4.18;;;2.58;;
71707;SDS011;59556;37.994;-122.332;2022-08-03T06:57:24;5.18;;;2.72;;
71707;SDS011;59556;37.994;-122.332;2022-08-03T06:59:50;4.28;;;2.90;;
71707;SDS011;59556;37.994;-122.332;2022-08-03T07:02:17;3.30;;;2.90;;
71707;SDS011;59556;37.994;-122.332;2022-08-03T07:04:43;6.03;;;3.10;;
71707;SDS011;59556;37.994;-122.332;2022-08-03T07:07:10;4.90;;;2.97;;
71707;SDS011;59556;37.994;-122.332;2022-08-03T07:09:36;4.68;;;3.03;;
71707;SDS011;59556;37.994;-122.332;2022-08-03T07:12:02;6.38;;;3.53;;
71707;SDS011;59556;37.994;-122.332;2022-08-03T07:14:30;5.10;;;2.95;;
71707;SDS011;59556;37.994;-122.332;2022-08-03T07:16:57;4.32;;;2.63;;
71707;SDS011;59556;37.994;-122.332;2022-08-03T07:19:23;3.35;;;2.50;;
71707;SDS011;59556;37.994;-122.332;2022-08-03T07:21:51;5.45;;;3.30;;
71707;SDS011;59556;37.994;-122.332;2022-08-03T07:24:17;4.07;;;3.08;;
71707;SDS011;59556;37.994;-122.332;2022-08-03T07:26:43;4.63;;;2.75;;
71707;SDS011;59556;37.994;-122.332;2022-08-03T07:29:09;4.85;;;3.03;;
71707;SDS011;59556;37.994;-122.332;2022-08-03T07:31:36;2.78;;;2.40;;
71707;SDS011;59556;37.994;-122.332;2022-08-03T07:34:02;4.85;;;2.78;;
71707;SDS011;59556;37.994;-122.332;2022-08-03T07:36:28;3.67;;;2.47;;
71707;SDS011;59556;37.994;-122.332;2022-08-03T07:38:56;3.97;;;2.78;;
71707;SDS011;59556;37.994;-122.332;2022-08-03T07:41:23;2.88;;;2.67;;
71707;SDS011;59556;37.994;-122.332;2022-08-03T07:43:49;4.00;;;2.60;;
71707;SDS011;59556;37.994;-122.332;2022-08-03T07:46:15;2.78;;;2.17;;
71707;SDS011;59556;37.994;-122.332;2022-08-03T07:48:41;3.08;;;2.70;;
71707;SDS011;59556;37.994;-122.332;2022-08-03T07:51:07;3.35;;;2.58;;
71707;SDS011;59556;37.994;-122.332;2022-08-03T07:53:34;2.97;;;2.20;;
71707;SDS011;59556;37.994;-122.332;2022-08-03T07:56:00;3.80;;;2.58;;
71707;SDS011;59556;37.994;-122.332;2022-08-03T07:58:26;2.70;;;2.50;;
71707;SDS011;59556;37.994;-122.332;2022-08-03T08:00:52;3.83;;;2.72;;
71707;SDS011;59556;37.994;-122.332;2022-08-03T08:03:19;4.40;;;2.63;;
71707;SDS011;59556;37.994;-122.332;2022-08-03T08:05:46;2.75;;;2.55;;
71707;SDS011;59556;37.994;-122.332;2022-08-03T08:08:12;8.05;;;2.50;;
71707;SDS011;59556;37.994;-122.332;2022-08-03T08:10:38;3.55;;;2.22;;
71707;SDS011;59556;37.994;-122.332;2022-08-03T08:13:05;2.92;;;2.63;;
71707;SDS011;59556;37.994;-122.332;2022-08-03T08:15:31;3.97;;;2.55;;
71707;SDS011;59556;37.994;-122.332;2022-08-03T08:17:58;3.08;;;2.25;;
71707;SDS011;59556;37.994;-122.332;2022-08-03T08:20:26;2.70;;;2.45;;
71707;SDS011;59556;37.994;-122.332;2022-08-03T08:22:55;2.95;;;2.28;;
71707;SDS011;59556;37.994;-122.332;2022-08-03T08:25:22;4.63;;;2.78;;
71707;SDS011;59556;37.994;-122.332;2022-08-03T08:27:48;2.35;;;2.00;;
71707;SDS011;59556;37.994;-122.332;2022-08-03T08:30:17;2.78;;;2.33;;
71707;SDS011;59556;37.994;-122.332;2022-08-03T08:32:45;2.58;;;2.10;;
71707;SDS011;59556;37.994;-122.332;2022-08-03T08:35:11;3.72;;;2.05;;
71707;SDS011;59556;37.994;-122.332;2022-08-03T08:37:38;4.53;;;2.35;;
71707;SDS011;59556;37.994;-122.332;2022-08-03T08:40:05;2.65;;;2.30;;
71707;SDS011;59556;37.994;-122.332;2022-08-03T08:42:32;2.50;;;2.30;;
71707;SDS011;59556;37.994;-122.332;2022-08-03T08:44:59;3.67;;;2.35;;
71707;SDS011;59556;37.994;-122.332;2022-08-03T08:47:28;4.68;;;2.25;;
71707;SDS011;59556;37.994;-122.332;2022-08-03T08:49:55;2.95;;;2.05;;
71707;SDS011;59556;37.994;-122.332;2022-08-03T08:52:29;2.38;;;2.17;;
71707;SDS011;59556;37.994;-122.332;2022-08-03T08:54:56;2.28;;;2.08;;
71707;SDS011;59556;37.994;-122.332;2022-08-03T08:57:25;2.83;;;2.42;;
71707;SDS011;59556;37.994;-122.332;2022-08-03T08:59:57;2.25;;;2.05;;
71707;SDS011;59556;37.994;-122.332;2022-08-03T09:02:24;2.10;;;1.88;;
71707;SDS011;59556;37.994;-122.332;2022-08-03T09:04:52;3.55;;;2.30;;
71707;SDS011;59556;37.994;-122.332;2022-08-03T09:07:18;9.50;;;2.42;;
71707;SDS011;59556;37.994;-122.332;2022-08-03T09:09:45;2.45;;;2.10;;
71707;SDS011;59556;37.994;-122.332;2022-08-03T09:12:11;3.38;;;2.70;;
71707;SDS011;59556;37.994;-122.332;2022-08-03T09:14:37;2.95;;;2.40;;
71707;SDS011;59556;37.994;-122.332;2022-08-03T09:17:03;2.80;;;2.00;;
71707;SDS011;59556;37.994;-122.332;2022-08-03T09:19:30;2.90;;;2.22;;
71707;SDS011;59556;37.994;-122.332;2022-08-03T09:22:07;3.28;;;2.13;;
71707;SDS011;59556;37.994;-122.332;2022-08-03T09:24:35;5.05;;;2.20;;
71707;SDS011;59556;37.994;-122.332;2022-08-03T09:27:04;3.40;;;1.95;;
71707;SDS011;59556;37.994;-122.332;2022-08-03T09:29:32;3.37;;;2.03;;
71707;SDS011;59556;37.994;-122.332;2022-08-03T09:32:02;2.22;;;2.03;;
71707;SDS011;59556;37.994;-122.332;2022-08-03T09:34:29;2.55;;;2.35;;
71707;SDS011;59556;37.994;-122.332;2022-08-03T09:36:55;2.22;;;2.00;;
71707;SDS011;59556;37.994;-122.332;2022-08-03T09:39:25;1.70;;;1.55;;
71707;SDS011;59556;37.994;-122.332;2022-08-03T09:44:39;2.53;;;2.33;;
71707;SDS011;59556;37.994;-122.332;2022-08-03T09:47:08;2.88;;;1.90;;
71707;SDS011;59556;37.994;-122.332;2022-08-03T09:49:35;2.08;;;1.88;;
71707;SDS011;59556;37.994;-122.332;2022-08-03T09:52:11;3.15;;;2.47;;
71707;SDS011;59556;37.994;-122.332;2022-08-03T09:54:42;3.50;;;1.77;;
71707;SDS011;59556;37.994;-122.332;2022-08-03T09:57:22;2.83;;;1.98;;
71707;SDS011;59556;37.994;-122.332;2022-08-03T09:59:49;2.80;;;1.92;;
71707;SDS011;59556;37.994;-122.332;2022-08-03T10:02:24;2.85;;;2.25;;
71707;SDS011;59556;37.994;-122.332;2022-08-03T10:04:51;2.38;;;2.17;;
71707;SDS011;59556;37.994;-122.332;2022-08-03T10:07:19;4.63;;;2.33;;
71707;SDS011;59556;37.994;-122.332;2022-08-03T10:09:53;2.05;;;1.85;;
71707;SDS011;59556;37.994;-122.332;2022-08-03T10:12:24;2.45;;;2.03;;
71707;SDS011;59556;37.994;-122.332;2022-08-03T10:14:51;1.88;;;1.75;;
71707;SDS011;59556;37.994;-122.332;2022-08-03T10:17:18;2.10;;;1.90;;
71707;SDS011;59556;37.994;-122.332;2022-08-03T10:19:45;5.10;;;2.05;;
71707;SDS011;59556;37.994;-122.332;2022-08-03T10:22:15;1.80;;;1.70;;
71707;SDS011;59556;37.994;-122.332;2022-08-03T10:25:03;1.75;;;1.65;;
71707;SDS011;59556;37.994;-122.332;2022-08-03T10:27:33;1.95;;;1.50;;
71707;SDS011;59556;37.994;-122.332;2022-08-03T10:30:03;3.08;;;1.85;;
71707;SDS011;59556;37.994;-122.332;2022-08-03T10:32:42;3.15;;;1.80;;
71707;SDS011;59556;37.994;-122.332;2022-08-03T10:35:11;1.95;;;1.75;;
71707;SDS011;59556;37.994;-122.332;2022-08-03T10:37:55;2.00;;;1.60;;
71707;SDS011;59556;37.994;-122.332;2022-08-03T10:40:27;2.25;;;1.67;;
71707;SDS011;59556;37.994;-122.332;2022-08-03T10:42:56;2.40;;;1.90;;
71707;SDS011;59556;37.994;-122.332;2022-08-03T10:45:25;2.13;;;1.42;;
71707;SDS011;59556;37.994;-122.332;2022-08-03T10:47:52;2.58;;;1.70;;
71707;SDS011;59556;37.994;-122.332;2022-08-03T10:50:21;1.75;;;1.58;;
71707;SDS011;59556;37.994;-122.332;2022-08-03T10:52:55;2.83;;;1.77;;
71707;SDS011;59556;37.994;-122.332;2022-08-03T10:55:39;2.53;;;1.73;;
71707;SDS011;59556;37.994;-122.332;2022-08-03T11:01:06;1.70;;;1.60;;
71707;SDS011;59556;37.994;-122.332;2022-08-03T11:04:20;1.77;;;1.65;;
71707;SDS011;59556;37.994;-122.332;2022-08-03T11:06:21;1.90;;;1.50;;
71707;SDS011;59556;37.994;-122.332;2022-08-03T11:11:41;2.80;;;2.15;;
71707;SDS011;59556;37.994;-122.332;2022-08-03T11:16:40;1.50;;;1.40;;
71707;SDS011;59556;37.994;-122.332;2022-08-03T11:19:19;2.45;;;1.73;;
71707;SDS011;59556;37.994;-122.332;2022-08-03T11:21:52;2.65;;;1.65;;
71707;SDS011;59556;37.994;-122.332;2022-08-03T11:35:09;1.98;;;1.73;;
71707;SDS011;59556;37.994;-122.332;2022-08-03T11:40:36;1.77;;;1.60;;
71707;SDS011;59556;37.994;-122.332;2022-08-03T11:46:09;2.65;;;1.35;;
71707;SDS011;59556;37.994;-122.332;2022-08-03T11:48:43;1.50;;;1.40;;
71707;SDS011;59556;37.994;-122.332;2022-08-03T11:53:56;1.65;;;1.40;;
71707;SDS011;59556;37.994;-122.332;2022-08-03T11:56:24;1.60;;;1.50;;
71707;SDS011;59556;37.994;-122.332;2022-08-03T11:58:53;1.60;;;1.50;;
71707;SDS011;59556;37.994;-122.332;2022-08-03T12:01:21;1.42;;;1.33;;
71707;SDS011;59556;37.994;-122.332;2022-08-03T12:03:48;3.78;;;1.52;;
71707;SDS011;59556;37.994;-122.332;2022-08-03T12:06:15;1.30;;;1.20;;
71707;SDS011;59556;37.994;-122.332;2022-08-03T12:08:43;2.58;;;1.30;;
71707;SDS011;59556;37.994;-122.332;2022-08-03T12:11:11;1.52;;;1.10;;
71707;SDS011;59556;37.994;-122.332;2022-08-03T12:13:43;1.63;;;1.17;;
71707;SDS011;59556;37.994;-122.332;2022-08-03T12:16:18;1.45;;;1.25;;
71707;SDS011;59556;37.994;-122.332;2022-08-03T12:18:55;1.48;;;1.38;;
71707;SDS011;59556;37.994;-122.332;2022-08-03T12:21:22;1.67;;;1.33;;
71707;SDS011;59556;37.994;-122.332;2022-08-03T12:23:49;1.95;;;1.30;;
71707;SDS011;59556;37.994;-122.332;2022-08-03T12:26:15;1.30;;;1.20;;
71707;SDS011;59556;37.994;-122.332;2022-08-03T12:28:48;0.98;;;0.90;;
71707;SDS011;59556;37.994;-122.332;2022-08-03T12:31:15;1.30;;;1.20;;
71707;SDS011;59556;37.994;-122.332;2022-08-03T12:33:56;1.33;;;1.23;;
71707;SDS011;59556;37.994;-122.332;2022-08-03T12:36:23;1.50;;;1.40;;
71707;SDS011;59556;37.994;-122.332;2022-08-03T12:38:54;1.27;;;1.17;;
71707;SDS011;59556;37.994;-122.332;2022-08-03T12:41:32;1.75;;;1.50;;
71707;SDS011;59556;37.994;-122.332;2022-08-03T12:43:59;1.80;;;1.20;;
71707;SDS011;59556;37.994;-122.332;2022-08-03T12:46:33;1.60;;;1.50;;
71707;SDS011;59556;37.994;-122.332;2022-08-03T12:49:05;1.63;;;1.25;;
71707;SDS011;59556;37.994;-122.332;2022-08-03T12:51:33;1.55;;;1.45;;
71707;SDS011;59556;37.994;-122.332;2022-08-03T12:54:01;1.52;;;1.42;;
71707;SDS011;59556;37.994;-122.332;2022-08-03T12:56:28;2.92;;;1.40;;
71707;SDS011;59556;37.994;-122.332;2022-08-03T12:58:54;1.70;;;1.60;;
71707;SDS011;59556;37.994;-122.332;2022-08-03T13:01:21;1.90;;;1.40;;
71707;SDS011;59556;37.994;-122.332;2022-08-03T13:03:49;2.47;;;1.50;;
71707;SDS011;59556;37.994;-122.332;2022-08-03T13:06:21;2.70;;;1.67;;
71707;SDS011;59556;37.994;-122.332;2022-08-03T13:08:48;3.10;;;1.65;;
71707;SDS011;59556;37.994;-122.332;2022-08-03T13:11:22;1.85;;;1.48;;
71707;SDS011;59556;37.994;-122.332;2022-08-03T13:13:51;2.70;;;1.88;;
71707;SDS011;59556;37.994;-122.332;2022-08-03T13:16:18;2.05;;;1.52;;
71707;SDS011;59556;37.994;-122.332;2022-08-03T13:18:46;0.90;;;0.90;;
71707;SDS011;59556;37.994;-122.332;2022-08-03T13:21:14;2.00;;;1.65;;
71707;SDS011;59556;37.994;-122.332;2022-08-03T13:23:41;1.85;;;1.60;;
71707;SDS011;59556;37.994;-122.332;2022-08-03T13:26:08;1.65;;;1.40;;
71707;SDS011;59556;37.994;-122.332;2022-08-03T13:28:36;1.58;;;1.35;;
71707;SDS011;59556;37.994;-122.332;2022-08-03T13:31:05;1.60;;;1.50;;
71707;SDS011;59556;37.994;-122.332;2022-08-03T13:33:32;1.75;;;1.58;;
71707;SDS011;59556;37.994;-122.332;2022-08-03T13:35:58;1.92;;;1.30;;
71707;SDS011;59556;37.994;-122.332;2022-08-03T13:38:25;2.55;;;1.27;;
71707;SDS011;59556;37.994;-122.332;2022-08-03T13:40:51;1.65;;;1.55;;
71707;SDS011;59556;37.994;-122.332;2022-08-03T13:43:18;1.60;;;1.20;;
71707;SDS011;59556;37.994;-122.332;2022-08-03T13:45:45;2.72;;;1.48;;
71707;SDS011;59556;37.994;-122.332;2022-08-03T13:48:11;1.30;;;1.20;;
71707;SDS011;59556;37.994;-122.332;2022-08-03T13:50:38;1.75;;;1.65;;
71707;SDS011;59556;37.994;-122.332;2022-08-03T13:53:04;1.95;;;1.55;;
71707;SDS011;59556;37.994;-122.332;2022-08-03T13:55:30;1.83;;;1.60;;
71707;SDS011;59556;37.994;-122.332;2022-08-03T13:57:57;1.38;;;1.23;;
71707;SDS011;59556;37.994;-122.332;2022-08-03T14:00:23;1.92;;;1.73;;
71707;SDS011;59556;37.994;-122.332;2022-08-03T14:02:50;3.03;;;2.00;;
71707;SDS011;59556;37.994;-122.332;2022-08-03T14:05:17;2.83;;;1.67;;
71707;SDS011;59556;37.994;-122.332;2022-08-03T14:07:43;1.10;;;1.00;;
71707;SDS011;59556;37.994;-122.332;2022-08-03T14:10:10;2.35;;;1.33;;
71707;SDS011;59556;37.994;-122.332;2022-08-03T14:12:36;1.77;;;1.13;;
71707;SDS011;59556;37.994;-122.332;2022-08-03T14:15:02;2.50;;;1.20;;
71707;SDS011;59556;37.994;-122.332;2022-08-03T14:17:30;3.10;;;1.70;;
71707;SDS011;59556;37.994;-122.332;2022-08-03T14:19:56;1.85;;;1.40;;
71707;SDS011;59556;37.994;-122.332;2022-08-03T14:22:22;1.85;;;1.63;;
71707;SDS011;59556;37.994;-122.332;2022-08-03T14:24:48;4.18;;;1.50;;
71707;SDS011;59556;37.994;-122.332;2022-08-03T14:27:15;1.92;;;1.58;;
71707;SDS011;59556;37.994;-122.332;2022-08-03T14:29:41;1.42;;;1.33;;
71707;SDS011;59556;37.994;-122.332;2022-08-03T14:32:07;1.40;;;1.30;;
71707;SDS011;59556;37.994;-122.332;2022-08-03T14:34:33;2.88;;;1.35;;
71707;SDS011;59556;37.994;-122.332;2022-08-03T14:37:00;2.53;;;1.38;;
71707;SDS011;59556;37.994;-122.332;2022-08-03T14:39:26;1.35;;;1.10;;
71707;SDS011;59556;37.994;-122.332;2022-08-03T14:41:52;3.17;;;1.55;;
71707;SDS011;59556;37.994;-122.332;2022-08-03T14:44:18;1.55;;;1.05;;
71707;SDS011;59556;37.994;-122.332;2022-08-03T14:46:44;3.00;;;1.33;;
71707;SDS011;59556;37.994;-122.332;2022-08-03T14:49:11;12.38;;;1.90;;
71707;SDS011;59556;37.994;-122.332;2022-08-03T14:51:37;24.67;;;2.42;;
71707;SDS011;59556;37.994;-122.332;2022-08-03T14:54:03;14.85;;;2.28;;
71707;SDS011;59556;37.994;-122.332;2022-08-03T14:56:29;9.35;;;1.63;;
71707;SDS011;59556;37.994;-122.332;2022-08-03T14:58:55;8.48;;;1.45;;